Time;durP1;ratioP1;P1;durP2;ratioP2;P2;SDS_P1;SDS_P2;PMS_P1;PMS_P2;Temp;Humidity;BMP_temperature;BMP_pressure;BME280_temperature;BME280_humidity;BME280_pressure;Samples;Min_cycle;Max_cycle;Signal;HPM_P1;HPM_P2
2022/10/06 00:02:05;;;;;;;4.30;3.75;;;;;;;17.90;49.41;94217.53;4977449;28;20500;-88
2022/10/06 00:04:30;;;;;;;4.10;3.25;;;;;;;17.91;49.28;94224.50;4980756;28;20042;-88
2022/10/06 00:06:56;;;;;;;4.70;3.90;;;;;;;17.89;49.29;94226.97;4998464;28;20034;-88
2022/10/06 00:09:21;;;;;;;3.88;3.47;;;;;;;17.92;49.12;94226.00;4973749;28;24920;-88
2022/10/06 00:11:47;;;;;;;5.13;3.33;;;;;;;17.88;49.44;94231.69;4970652;28;20025;-88
2022/10/06 00:14:12;;;;;;;5.38;3.70;;;;;;;17.90;49.03;94225.75;4976840;28;20531;-88
2022/10/06 00:16:37;;;;;;;5.05;3.78;;;;;;;17.89;49.30;94232.44;5012276;28;20034;-89
2022/10/06 00:19:03;;;;;;;4.70;3.45;;;;;;;17.88;49.14;94231.69;4995673;28;20045;-87
2022/10/06 00:21:28;;;;;;;5.03;3.42;;;;;;;17.91;49.25;94233.47;5000547;28;20045;-89
2022/10/06 00:23:54;;;;;;;4.45;3.15;;;;;;;17.87;49.56;94238.41;4993535;28;20088;-90
2022/10/06 00:26:19;;;;;;;4.05;3.20;;;;;;;17.88;49.31;94236.41;5027078;28;20038;-88
2022/10/06 00:28:47;;;;;;;3.88;3.00;;;;;;;17.87;49.06;94230.19;4976706;28;20692;-88
2022/10/06 00:31:13;;;;;;;3.45;2.85;;;;;;;17.89;49.24;94235.19;4989527;28;20492;-88
2022/10/06 00:33:39;;;;;;;4.30;3.25;;;;;;;17.88;49.04;94239.91;4982662;28;20045;-88
2022/10/06 00:36:04;;;;;;;3.85;3.15;;;;;;;17.87;49.33;94241.13;4977151;28;20060;-88
2022/10/06 00:38:30;;;;;;;4.05;3.10;;;;;;;17.89;49.37;94238.66;5027873;28;20452;-88
2022/10/06 00:40:55;;;;;;;4.20;3.45;;;;;;;17.87;48.91;94245.88;4993167;28;20037;-88
2022/10/06 00:43:38;;;;;;;4.95;3.50;;;;;;;17.86;49.65;94245.13;4992660;28;20052;-88
2022/10/06 00:46:04;;;;;;;4.28;3.30;;;;;;;17.85;49.34;94243.63;5027107;28;20431;-88
2022/10/06 00:48:30;;;;;;;4.22;3.25;;;;;;;17.90;49.26;94245.63;4965532;28;20052;-88
2022/10/06 00:50:55;;;;;;;3.92;3.00;;;;;;;17.88;49.17;94252.84;4976843;28;20050;-88
2022/10/06 00:53:21;;;;;;;4.30;3.47;;;;;;;17.90;48.89;94256.59;4993638;28;20099;-88
2022/10/06 00:55:46;;;;;;;3.45;2.85;;;;;;;17.87;49.38;94254.81;4993546;28;20129;-88
2022/10/06 00:58:12;;;;;;;3.58;3.08;;;;;;;17.88;49.46;94244.63;4992638;28;20500;-88
2022/10/06 01:00:38;;;;;;;4.63;3.10;;;;;;;17.86;49.20;94261.53;4977105;28;20049;-88
2022/10/06 01:03:06;;;;;;;4.82;3.58;;;;;;;17.86;49.65;94247.09;4992243;28;20041;-88
2022/10/06 01:05:34;;;;;;;4.10;3.10;;;;;;;17.89;49.32;94252.34;4998913;28;20081;-89
2022/10/06 01:07:59;;;;;;;4.60;3.22;;;;;;;17.91;49.12;94249.13;4993221;28;20048;-88
2022/10/06 01:10:24;;;;;;;3.67;3.00;;;;;;;17.86;49.38;94258.03;4975446;28;20037;-88
2022/10/06 01:12:50;;;;;;;3.60;2.88;;;;;;;17.91;49.29;94254.59;4989802;28;20034;-87
2022/10/06 01:15:16;;;;;;;3.95;3.00;;;;;;;17.85;49.15;94259.28;4976615;28;20052;-88
2022/10/06 01:17:54;;;;;;;4.60;3.42;;;;;;;17.85;49.68;94260.03;4980581;28;20396;-88
2022/10/06 01:20:19;;;;;;;4.28;2.70;;;;;;;17.86;49.35;94249.84;4993185;28;20076;-88
2022/10/06 01:22:52;;;;;;;5.30;3.65;;;;;;;17.86;49.68;94256.06;4989756;28;20508;-88
2022/10/06 01:25:18;;;;;;;3.35;3.00;;;;;;;17.89;49.44;94249.63;5008357;28;20052;-88
2022/10/06 01:27:45;;;;;;;3.35;2.72;;;;;;;17.86;49.45;94252.56;4977302;28;20046;-88
2022/10/06 01:30:15;;;;;;;3.72;3.25;;;;;;;17.85;49.56;94256.53;4999623;28;20061;-88
2022/10/06 01:32:40;;;;;;;3.00;2.17;;;;;;;17.84;49.46;94255.78;4976404;28;20377;-89
2022/10/06 01:35:06;;;;;;;3.75;2.78;;;;;;;17.84;49.59;94255.03;4976319;28;20041;-88
2022/10/06 01:37:32;;;;;;;3.63;2.50;;;;;;;17.83;49.33;94254.28;4992535;28;20034;-88
2022/10/06 01:39:57;;;;;;;3.72;2.70;;;;;;;17.86;49.71;94260.78;5009104;28;20057;-88
2022/10/06 01:42:22;;;;;;;3.08;2.58;;;;;;;17.88;49.44;94250.84;5003709;28;20411;-89
2022/10/06 01:44:48;;;;;;;5.57;3.42;;;;;;;17.86;49.37;94255.31;4989336;28;20041;-88
2022/10/06 01:47:13;;;;;;;3.95;2.65;;;;;;;17.84;49.63;94247.56;4956422;28;20046;-88
2022/10/06 01:49:39;;;;;;;4.70;2.85;;;;;;;17.85;49.25;94251.06;5001984;28;20044;-89
2022/10/06 01:52:04;;;;;;;3.60;3.00;;;;;;;17.85;49.62;94256.53;4972215;28;20093;-88
2022/10/06 01:54:30;;;;;;;4.82;2.80;;;;;;;17.84;49.50;94255.03;4989264;28;20037;-88
2022/10/06 01:56:55;;;;;;;2.83;2.53;;;;;;;17.85;49.40;94249.09;4992961;28;20033;-88
2022/10/06 01:59:20;;;;;;;3.60;2.45;;;;;;;17.84;49.39;94249.56;4988869;28;20424;-88
2022/10/06 02:01:46;;;;;;;2.95;2.42;;;;;;;17.88;49.51;94255.56;4976198;28;20404;-88
2022/10/06 02:04:11;;;;;;;3.17;2.53;;;;;;;17.85;49.10;94251.81;4984313;28;20049;-88
2022/10/06 02:06:37;;;;;;;3.65;2.92;;;;;;;17.83;49.86;94254.28;4987362;28;20033;-89
2022/10/06 02:09:02;;;;;;;2.67;2.47;;;;;;;17.83;49.16;94259.00;4988708;28;20531;-88
2022/10/06 02:11:28;;;;;;;3.67;2.67;;;;;;;17.80;49.65;94245.06;4992026;28;20036;-88
2022/10/06 02:13:53;;;;;;;4.00;2.83;;;;;;;17.85;49.26;94251.81;4973075;28;20050;-88
2022/10/06 02:16:19;;;;;;;3.03;2.60;;;;;;;17.83;49.35;94253.53;4972632;28;20038;-88
2022/10/06 02:18:44;;;;;;;4.10;2.83;;;;;;;17.81;49.04;94248.56;4980383;28;20060;-89
2022/10/06 02:21:14;;;;;;;3.88;2.60;;;;;;;17.82;49.42;94255.53;4986945;28;20072;-88
2022/10/06 02:23:40;;;;;;;2.87;2.43;;;;;;;17.84;49.60;94253.06;5013103;28;20052;-90
2022/10/06 02:26:06;;;;;;;3.60;2.53;;;;;;;17.82;49.46;94255.53;4979476;28;20271;-88
2022/10/06 02:28:31;;;;;;;3.47;2.50;;;;;;;17.83;49.50;94253.53;4979740;28;20421;-88
2022/10/06 02:31:02;;;;;;;2.40;2.05;;;;;;;17.80;49.32;94258.75;4993255;28;20041;-88
2022/10/06 02:33:27;;;;;;;3.75;2.63;;;;;;;17.80;49.72;94266.19;5014717;28;20037;-88
2022/10/06 02:35:54;;;;;;;4.03;2.40;;;;;;;17.81;49.31;94262.22;5011993;28;20026;-89
2022/10/06 02:38:20;;;;;;;3.17;2.25;;;;;;;17.80;49.33;94268.94;4979164;28;20053;-88
2022/10/06 02:40:46;;;;;;;3.42;2.90;;;;;;;17.81;49.77;94262.97;4992308;28;20513;-88
2022/10/06 02:43:11;;;;;;;2.55;2.33;;;;;;;17.80;49.65;94268.94;5001098;28;20048;-88
2022/10/06 02:45:37;;;;;;;3.08;2.47;;;;;;;17.83;49.15;94273.44;4995184;28;20045;-88
2022/10/06 02:48:02;;;;;;;2.67;2.22;;;;;;;17.81;49.78;94281.38;4995500;28;20037;-88
2022/10/06 02:50:28;;;;;;;3.40;2.58;;;;;;;17.84;49.56;94283.13;4995424;28;20379;-87
2022/10/06 02:52:54;;;;;;;2.80;2.47;;;;;;;17.83;49.58;94280.88;4995485;28;20048;-88
2022/10/06 02:55:19;;;;;;;2.88;2.38;;;;;;;17.85;49.86;94281.16;4994824;28;20037;-88
2022/10/06 02:57:44;;;;;;;2.33;2.05;;;;;;;17.83;49.55;94283.63;4995898;28;20038;-89
2022/10/06 03:00:11;;;;;;;3.17;2.50;;;;;;;17.83;49.61;94287.09;4991791;28;20042;-88
2022/10/06 03:02:39;;;;;;;2.80;1.88;;;;;;;17.80;49.63;94297.03;4976111;28;20054;-88
2022/10/06 03:05:05;;;;;;;2.85;2.53;;;;;;;17.81;49.20;94295.03;4986942;28;20095;-88
2022/10/06 03:07:30;;;;;;;2.70;2.17;;;;;;;17.83;49.44;94294.56;4999174;28;20511;-88
2022/10/06 03:09:55;;;;;;;3.30;2.20;;;;;;;17.84;49.32;94307.00;4975695;28;20052;-89
2022/10/06 03:12:21;;;;;;;3.30;2.10;;;;;;;17.80;49.71;94305.22;4975249;28;20056;-87
2022/10/06 03:14:47;;;;;;;2.50;2.00;;;;;;;17.81;49.75;94305.97;4968648;28;20038;-88
2022/10/06 03:17:13;;;;;;;2.88;2.38;;;;;;;17.85;49.66;94303.78;4978398;28;20056;-88
2022/10/06 03:19:38;;;;;;;3.03;2.35;;;;;;;17.80;49.63;94305.22;4994557;28;20527;-88
2022/10/06 03:22:04;;;;;;;3.00;1.98;;;;;;;17.81;49.36;94306.72;4994159;28;20025;-88
2022/10/06 03:24:30;;;;;;;2.95;2.38;;;;;;;17.80;49.74;94302.50;5008287;28;20037;-88
2022/10/06 03:26:55;;;;;;;2.88;2.42;;;;;;;17.83;49.75;94300.78;4995363;28;20036;-88
2022/10/06 03:29:20;;;;;;;2.45;1.90;;;;;;;17.84;49.87;94309.75;4974143;28;20500;-89
2022/10/06 03:31:46;;;;;;;2.63;1.95;;;;;;;17.83;49.76;94316.44;4994010;28;20052;-88
2022/10/06 03:34:12;;;;;;;2.58;2.08;;;;;;;17.80;49.48;94321.66;5027335;28;20523;-88
2022/10/06 03:36:38;;;;;;;3.03;1.92;;;;;;;17.79;49.42;94320.16;4991697;28;20049;-89
2022/10/06 03:39:04;;;;;;;2.95;2.22;;;;;;;17.80;49.90;94315.41;4977325;28;20194;-88
2022/10/06 03:41:30;;;;;;;11.75;2.88;;;;;;;17.81;50.02;94322.41;4978408;28;20099;-88
2022/10/06 03:43:57;;;;;;;593.95;67.38;;;;;;;17.80;49.42;94316.16;5013126;28;20087;-88
2022/10/06 03:46:23;;;;;;;147.63;16.65;;;;;;;17.85;50.00;94325.66;4994997;28;20091;-88
2022/10/06 03:48:49;;;;;;;55.97;8.57;;;;;;;17.86;49.83;94327.16;4996027;28;20044;-88
2022/10/06 03:51:16;;;;;;;14.55;3.08;;;;;;;17.86;49.85;94326.41;4995346;28;20050;-90
2022/10/06 03:53:43;;;;;;;22.17;3.05;;;;;;;17.89;49.83;94333.66;4996896;28;20041;-91
2022/10/06 03:56:15;;;;;;;11.55;4.03;;;;;;;17.93;49.42;94336.94;4974860;28;20121;-90
2022/10/06 03:58:44;;;;;;;6.32;3.42;;;;;;;17.87;49.45;94345.06;4979595;28;20026;-92
2022/10/06 04:01:17;;;;;;;12.25;3.17;;;;;;;17.88;49.89;94349.31;4975946;28;20073;-90
2022/10/06 04:03:42;;;;;;;13.98;3.15;;;;;;;17.84;49.50;94343.31;4960191;28;20062;-91
2022/10/06 04:06:13;;;;;;;5.65;2.50;;;;;;;17.85;49.55;94346.78;4977536;28;20485;-92
2022/10/06 04:08:38;;;;;;;4.57;2.65;;;;;;;17.84;49.60;94356.97;5008154;28;20444;-93
2022/10/06 04:11:08;;;;;;;8.52;2.85;;;;;;;17.87;49.73;94358.00;4976243;28;20117;-90
2022/10/06 04:13:34;;;;;;;6.53;2.63;;;;;;;17.85;49.50;94355.75;4976276;28;20030;-91
2022/10/06 04:16:17;;;;;;;8.73;3.00;;;;;;;17.84;49.86;94348.03;4984900;28;20041;-91
2022/10/06 04:18:44;;;;;;;6.90;2.78;;;;;;;17.82;49.46;94356.72;4986968;28;20057;-90
2022/10/06 04:21:10;;;;;;;8.75;2.83;;;;;;;17.83;49.72;94358.22;5033208;28;20116;-92
2022/10/06 04:23:35;;;;;;;12.88;3.35;;;;;;;17.77;49.88;94354.69;5007798;28;20148;-90
2022/10/06 04:26:02;;;;;;;25.65;5.10;;;;;;;17.78;49.64;94358.91;4994731;28;20034;-90
2022/10/06 04:28:28;;;;;;;22.65;5.05;;;;;;;17.74;49.82;94367.34;4976401;28;20045;-89
2022/10/06 04:30:57;;;;;;;15.63;5.68;;;;;;;17.76;50.48;94364.13;4962963;28;20066;-91
2022/10/06 04:33:23;;;;;;;20.40;13.00;;;;;;;17.77;50.06;94371.09;5011328;28;20124;-91
2022/10/06 04:35:59;;;;;;;20.85;11.40;;;;;;;17.73;50.39;94376.78;4979711;28;20048;-89
2022/10/06 04:38:24;;;;;;;16.30;8.82;;;;;;;17.73;50.43;94376.03;4981019;28;20037;-92
2022/10/06 04:40:50;;;;;;;40.33;24.98;;;;;;;17.70;50.94;94380.50;5009012;28;20033;-87
2022/10/06 04:43:15;;;;;;;60.90;28.75;;;;;;;17.73;50.73;94376.78;4977091;28;20291;-87
2022/10/06 04:45:41;;;;;;;70.82;44.33;;;;;;;17.69;51.08;94375.50;4989864;28;20040;-88
2022/10/06 04:48:06;;;;;;;13.00;8.00;;;;;;;17.69;50.69;94378.25;4994771;28;20458;-89
2022/10/06 04:50:32;;;;;;;16.33;6.97;;;;;;;17.68;50.73;94382.19;4976078;28;20037;-90
2022/10/06 04:52:58;;;;;;;64.30;15.75;;;;;;;17.67;51.00;94384.19;5009516;28;20033;-89
2022/10/06 04:55:23;;;;;;;130.77;40.38;;;;;;;17.65;51.24;94388.63;4984300;28;20042;-89
2022/10/06 04:57:49;;;;;;;117.22;38.58;;;;;;;17.68;50.82;94377.47;4981583;28;20038;-91
2022/10/06 05:00:24;;;;;;;91.00;36.20;;;;;;;17.70;50.78;94385.97;4981091;28;20056;-91
2022/10/06 05:02:51;;;;;;;81.40;40.88;;;;;;;17.73;50.46;94392.44;4993802;28;20042;-90
2022/10/06 05:05:17;;;;;;;105.65;48.88;;;;;;;17.72;50.92;94394.44;4979207;28;20060;-92
2022/10/06 05:07:44;;;;;;;97.05;46.33;;;;;;;17.77;50.45;94395.69;4977728;28;20033;-91
2022/10/06 05:10:09;;;;;;;91.35;44.50;;;;;;;17.75;50.65;94393.44;4994762;28;20041;-91
2022/10/06 05:12:35;;;;;;;97.00;49.53;;;;;;;17.77;50.90;94392.97;4994342;28;20045;-92
2022/10/06 05:15:00;;;;;;;117.75;56.80;;;;;;;17.75;50.84;94404.38;4962578;28;20045;-88
2022/10/06 05:17:26;;;;;;;126.82;61.83;;;;;;;17.77;50.78;94399.19;4995859;28;20049;-91
2022/10/06 05:19:51;;;;;;;108.88;44.65;;;;;;;17.78;50.52;94397.94;5003271;28;20037;-90
2022/10/06 05:22:16;;;;;;;92.97;44.75;;;;;;;17.75;50.47;94401.66;4978483;28;20033;-89
2022/10/06 05:24:42;;;;;;;98.53;42.70;;;;;;;17.80;50.70;94397.47;4974276;28;20041;-90
2022/10/06 05:27:07;;;;;;;105.22;44.75;;;;;;;17.79;50.79;94407.66;4992633;28;20077;-89
2022/10/06 05:29:34;;;;;;;92.93;42.25;;;;;;;17.78;50.63;94408.13;4976016;28;20376;-89
2022/10/06 05:31:59;;;;;;;91.72;41.20;;;;;;;17.80;50.50;94409.16;4973982;28;20041;-89
2022/10/06 05:34:25;;;;;;;81.15;40.72;;;;;;;17.81;50.18;94418.13;4975503;28;20068;-89
2022/10/06 05:36:50;;;;;;;85.00;41.72;;;;;;;17.84;50.34;94425.38;4993766;28;20030;-88
2022/10/06 05:39:15;;;;;;;82.63;37.47;;;;;;;17.81;50.83;94429.81;4991925;28;20041;-93
2022/10/06 05:41:41;;;;;;;83.57;35.95;;;;;;;17.80;50.91;94427.56;5009220;28;20475;-93
2022/10/06 05:44:07;;;;;;;76.03;34.03;;;;;;;17.82;50.68;94441.50;5025148;28;20045;-87
2022/10/06 05:46:33;;;;;;;63.08;33.58;;;;;;;17.83;50.81;94445.00;4973688;28;20115;-88
2022/10/06 05:49:00;;;;;;;76.43;33.95;;;;;;;17.85;50.74;94443.28;5008711;28;20725;-89
2022/10/06 05:51:27;;;;;;;65.13;33.42;;;;;;;17.86;50.83;94442.03;4993600;28;20765;-90
2022/10/06 05:53:52;;;;;;;66.68;31.77;;;;;;;17.81;51.00;94448.97;4993081;28;20449;-90
2022/10/06 05:56:22;;;;;;;63.00;31.25;;;;;;;17.83;50.53;94440.28;4976742;28;20043;-89
2022/10/06 05:58:50;;;;;;;55.00;31.10;;;;;;;17.86;50.61;94449.50;4999885;28;20055;-88
2022/10/06 06:01:20;;;;;;;56.00;27.77;;;;;;;17.86;50.63;94458.47;4978250;28;20037;-89
2022/10/06 06:03:47;;;;;;;57.08;30.08;;;;;;;17.86;50.56;94458.47;5016705;28;20060;-90
2022/10/06 06:06:22;;;;;;;53.25;28.58;;;;;;;17.90;50.56;94463.72;4999534;28;20079;-89
2022/10/06 06:08:54;;;;;;;52.83;29.20;;;;;;;17.94;50.53;94467.00;5024886;28;20128;-91
2022/10/06 06:11:24;;;;;;;53.88;28.35;;;;;;;17.99;50.73;94471.75;5011210;28;20463;-91
2022/10/06 06:13:52;;;;;;;55.95;30.73;;;;;;;17.98;50.50;94465.53;4985503;28;20044;-90
2022/10/06 06:16:17;;;;;;;49.30;29.63;;;;;;;17.98;50.65;94475.72;5006713;28;20067;-91
2022/10/06 06:18:43;;;;;;;57.75;31.05;;;;;;;18.01;50.70;94475.53;4988121;28;20100;-91
2022/10/06 06:21:08;;;;;;;51.47;27.25;;;;;;;18.04;50.33;94471.06;4976461;28;20041;-94
2022/10/06 06:23:36;;;;;;;49.55;27.00;;;;;;;18.09;50.10;94478.59;4973829;28;20037;-89
2022/10/06 06:26:09;;;;;;;52.15;25.75;;;;;;;18.11;50.57;94481.59;4972875;28;20050;-91
2022/10/06 06:28:35;;;;;;;42.70;25.70;;;;;;;18.09;50.10;94479.34;4977801;28;20050;-90
2022/10/06 06:31:06;;;;;;;37.60;23.42;;;;;;;18.08;50.64;94486.03;4981004;28;20066;-95
2022/10/06 06:33:36;;;;;;;43.72;26.83;;;;;;;18.06;50.72;94493.97;4983280;28;20054;-89
2022/10/06 06:36:21;;;;;;;59.08;38.05;;;;;;;18.09;50.25;94489.53;4972305;28;20072;-90
2022/10/06 06:38:50;;;;;;;73.95;46.45;;;;;;;18.14;50.45;94497.06;4967237;28;20129;-89
2022/10/06 06:41:20;;;;;;;122.50;74.60;;;;;;;18.11;50.45;94503.47;4973088;28;20057;-92
2022/10/06 06:43:46;;;;;;;177.30;101.78;;;;;;;18.11;50.43;94496.03;4967665;28;20046;-90
2022/10/06 06:46:13;;;;;;;217.52;124.85;;;;;;;18.12;50.08;94507.72;4967358;28;20042;-89
2022/10/06 06:48:39;;;;;;;169.13;101.85;;;;;;;18.17;51.12;94498.81;4974780;28;20121;-89
2022/10/06 06:51:14;;;;;;;173.57;99.22;;;;;;;18.15;50.64;94495.81;4964342;28;20046;-93
2022/10/06 06:53:39;;;;;;;150.73;89.82;;;;;;;18.23;51.79;94507.06;4985850;28;20504;-90
2022/10/06 06:56:07;;;;;;;221.85;130.23;;;;;;;18.27;51.08;94504.88;5006840;28;20041;-91
2022/10/06 06:58:33;;;;;;;277.83;160.07;;;;;;;18.23;50.22;94513.28;5008137;28;20068;-91
2022/10/06 07:01:12;;;;;;;247.07;140.88;;;;;;;18.20;50.42;94516.25;4974980;28;20670;-92
2022/10/06 07:03:40;;;;;;;250.38;144.60;;;;;;;18.25;50.28;94518.28;4980689;28;20526;-90
2022/10/06 07:06:08;;;;;;;247.45;145.88;;;;;;;18.26;49.96;94520.53;4976512;28;20054;-90
2022/10/06 07:08:36;;;;;;;235.50;142.55;;;;;;;18.23;50.44;94529.72;5005524;28;20038;-92
2022/10/06 07:11:14;;;;;;;212.05;115.93;;;;;;;18.25;50.10;94530.00;5007054;28;20412;-92
2022/10/06 07:13:39;;;;;;;242.05;140.38;;;;;;;18.25;50.10;94535.47;5023472;28;20072;-92
2022/10/06 07:27:04;;;;;;;232.40;122.80;;;;;;;18.31;50.24;94541.00;5021718;28;20072;-94
2022/10/06 07:29:30;;;;;;;220.48;119.13;;;;;;;18.28;50.66;94536.50;4982701;28;20041;-90
2022/10/06 07:31:56;;;;;;;214.98;110.70;;;;;;;18.28;50.32;94544.69;4981711;28;20037;-91
2022/10/06 07:34:21;;;;;;;190.70;107.22;;;;;;;18.28;50.40;94539.97;4980133;28;20033;-93
2022/10/06 07:36:51;;;;;;;190.25;102.15;;;;;;;18.31;50.48;94543.75;4997534;28;20038;-93
2022/10/06 07:39:17;;;;;;;183.48;101.72;;;;;;;18.30;50.49;94548.47;4982532;28;20046;-94
2022/10/06 07:41:42;;;;;;;183.95;104.45;;;;;;;18.31;50.49;94547.22;4996708;28;20045;-91
2022/10/06 07:44:08;;;;;;;165.88;95.57;;;;;;;18.31;50.70;94554.69;4986868;28;20041;-93
2022/10/06 07:46:33;;;;;;;167.18;102.65;;;;;;;18.32;50.53;94558.94;4994407;28;20041;-92
2022/10/06 07:48:59;;;;;;;167.63;103.85;;;;;;;18.32;50.64;94562.41;4994223;28;20042;-93
2022/10/06 07:51:26;;;;;;;157.88;98.97;;;;;;;18.32;50.67;94561.66;4984766;28;20049;-95
2022/10/06 07:53:52;;;;;;;178.05;100.30;;;;;;;18.32;50.35;94561.66;4972473;28;20045;-91
2022/10/06 07:56:19;;;;;;;149.73;96.43;;;;;;;18.33;50.51;94563.16;4978846;28;20045;-92
2022/10/06 07:58:46;;;;;;;170.00;102.63;;;;;;;18.34;50.41;94559.94;4984141;28;20041;-92
2022/10/06 08:01:12;;;;;;;204.57;120.82;;;;;;;18.34;50.39;94573.63;5009053;28;20059;-91
2022/10/06 08:03:38;;;;;;;192.55;118.07;;;;;;;18.38;50.63;94567.97;4985674;28;20120;-93
2022/10/06 08:06:04;;;;;;;201.15;117.90;;;;;;;18.34;50.91;94557.22;4992695;28;20152;-91
2022/10/06 08:08:30;;;;;;;194.27;110.68;;;;;;;18.36;50.49;94570.44;4995307;28;20042;-90
2022/10/06 08:10:58;;;;;;;190.45;109.07;;;;;;;18.37;50.75;94589.09;5009189;28;20030;-92
2022/10/06 08:13:23;;;;;;;166.10;101.97;;;;;;;18.36;50.71;94579.38;5011100;28;20037;-90
2022/10/06 08:15:50;;;;;;;164.07;97.82;;;;;;;18.39;50.60;94588.63;4987642;28;20506;-94
2022/10/06 08:18:17;;;;;;;167.27;99.15;;;;;;;18.44;50.33;94587.91;4981667;28;20033;-93
2022/10/06 08:23:18;;;;;;;161.77;106.82;;;;;;;18.43;50.56;94592.63;4670736;26;20539;-91
2022/10/06 08:25:50;;;;;;;167.93;103.30;;;;;;;18.41;50.72;94594.34;5069724;28;20031;-92
2022/10/06 08:28:24;;;;;;;195.23;114.60;;;;;;;18.44;50.61;94596.88;5048145;28;20097;-91
2022/10/06 08:30:51;;;;;;;200.80;115.47;;;;;;;18.47;50.50;94598.66;5041876;28;20375;-92
2022/10/06 08:33:16;;;;;;;196.38;103.78;;;;;;;18.47;51.17;94608.84;5066191;28;20036;-92
2022/10/06 08:35:42;;;;;;;197.52;107.75;;;;;;;18.46;51.04;94608.09;5046943;28;20524;-92
2022/10/06 08:38:07;;;;;;;165.32;85.47;;;;;;;18.46;51.46;94608.09;5056810;28;20040;-90
2022/10/06 08:40:33;;;;;;;183.52;103.75;;;;;;;18.42;51.51;94609.53;5036087;28;20041;-92
2022/10/06 08:43:00;;;;;;;159.63;85.13;;;;;;;18.44;52.29;94616.03;5080509;22;20043;-91
2022/10/06 08:45:34;;;;;;;157.50;85.43;;;;;;;18.46;52.12;94623.78;5061486;28;20618;-88
2022/10/06 08:48:04;;;;;;;139.20;74.07;;;;;;;18.45;52.24;94627.75;5074586;28;20040;-89
2022/10/06 08:50:40;;;;;;;147.35;81.63;;;;;;;18.42;51.77;94628.72;5058781;28;20101;-92
2022/10/06 08:53:09;;;;;;;163.65;89.38;;;;;;;18.45;51.77;94625.00;5052876;28;20127;-92
2022/10/06 08:55:44;;;;;;;160.48;89.60;;;;;;;18.42;52.07;94629.47;5068671;28;20050;-89
2022/10/06 08:58:18;;;;;;;151.38;86.72;;;;;;;18.45;52.10;94625.75;5033560;28;20139;-91
2022/10/06 09:00:44;;;;;;;146.82;86.60;;;;;;;18.48;52.27;94630.28;5068635;28;20039;-91
2022/10/06 09:03:21;;;;;;;156.48;85.40;;;;;;;18.45;52.27;94614.06;5049123;28;20054;-91
2022/10/06 09:05:47;;;;;;;130.88;73.65;;;;;;;18.48;52.31;94637.75;5057412;28;20036;-90
2022/10/06 09:08:23;;;;;;;151.50;78.68;;;;;;;18.46;52.27;94635.47;5054403;28;20042;-93
2022/10/06 09:11:11;;;;;;;154.20;88.95;;;;;;;18.44;52.33;94631.72;5068819;28;20074;-90
2022/10/06 09:14:00;;;;;;;155.90;83.78;;;;;;;18.47;52.76;94636.22;5087844;28;20044;-94
2022/10/06 09:16:27;;;;;;;209.77;117.65;;;;;;;18.50;52.58;94635.28;5061467;28;20168;-91
2022/10/06 09:18:59;;;;;;;176.55;96.15;;;;;;;18.49;52.63;94645.47;5084306;28;20140;-89
2022/10/06 09:21:30;;;;;;;158.75;93.57;;;;;;;18.49;52.64;94640.00;5058222;28;20135;-92
2022/10/06 09:24:02;;;;;;;172.60;102.63;;;;;;;18.48;52.89;94635.75;5051392;28;20036;-91
2022/10/06 09:26:31;;;;;;;133.45;79.45;;;;;;;18.51;53.08;94634.03;5064589;28;20044;-92
2022/10/06 09:28:57;;;;;;;99.90;61.40;;;;;;;18.53;53.33;94636.31;5061544;28;20039;-91
2022/10/06 09:31:30;;;;;;;161.70;81.78;;;;;;;18.53;53.26;94637.06;5040312;28;20127;-89
2022/10/06 09:34:11;;;;;;;139.40;76.25;;;;;;;18.50;53.09;94638.75;5065091;28;20070;-90
2022/10/06 09:36:58;;;;;;;117.60;70.80;;;;;;;18.48;53.34;94641.22;5051460;28;20495;-90
2022/10/06 09:39:25;;;;;;;127.70;71.22;;;;;;;18.52;53.07;94643.00;5078473;28;20503;-94
2022/10/06 09:41:57;;;;;;;135.90;72.05;;;;;;;18.55;53.19;94647.53;5049353;28;20042;-93
2022/10/06 09:44:28;;;;;;;123.05;74.93;;;;;;;18.53;53.26;94650.75;5043086;28;20074;-92
2022/10/06 09:46:53;;;;;;;119.18;73.63;;;;;;;18.55;53.12;94653.75;5047987;28;20029;-94
2022/10/06 09:49:20;;;;;;;143.80;78.75;;;;;;;18.57;52.88;94645.06;5050909;28;20024;-92
2022/10/06 09:52:13;;;;;;;190.45;103.80;;;;;;;18.55;53.19;94650.28;5052773;28;20039;-94
2022/10/06 09:54:40;;;;;;;188.73;99.28;;;;;;;18.58;53.22;94646.56;5057416;28;20119;-93
2022/10/06 09:57:14;;;;;;;182.63;96.70;;;;;;;18.56;53.18;94649.78;5054589;28;20055;-91
2022/10/06 09:59:41;;;;;;;199.77;105.57;;;;;;;18.57;53.26;94656.78;5058261;28;20058;-91
2022/10/06 10:02:35;;;;;;;179.82;92.90;;;;;;;18.58;53.69;94644.59;5070305;28;20044;-92
2022/10/06 10:05:05;;;;;;;183.43;106.13;;;;;;;18.58;53.05;94649.31;5055599;28;20041;-94
2022/10/06 10:07:32;;;;;;;205.40;114.28;;;;;;;18.60;53.29;94649.63;5053904;28;20398;-93
2022/10/06 10:10:18;;;;;;;195.93;106.05;;;;;;;18.56;53.50;94655.25;5055360;28;20037;-96
2022/10/06 10:12:54;;;;;;;176.90;101.55;;;;;;;18.57;53.51;94653.28;5054834;28;20048;-92
2022/10/06 10:15:19;;;;;;;160.73;90.40;;;;;;;18.59;53.46;94651.59;5054994;28;20050;-93
2022/10/06 10:17:55;;;;;;;151.00;84.57;;;;;;;18.61;53.26;94651.13;5094840;28;20040;-94
2022/10/06 10:20:23;;;;;;;141.73;83.50;;;;;;;18.60;53.25;94660.56;5072457;28;20498;-94
2022/10/06 10:22:49;;;;;;;130.80;78.18;;;;;;;18.60;53.86;94649.63;5084851;28;20109;-96
2022/10/06 10:25:39;;;;;;;115.93;70.57;;;;;;;18.59;53.48;94656.28;5073327;28;20097;-93
2022/10/06 10:28:14;;;;;;;109.70;70.28;;;;;;;18.58;53.54;94652.03;5073270;28;20047;-92
2022/10/06 10:30:48;;;;;;;130.85;64.78;;;;;;;18.60;54.24;94655.84;5089592;28;20093;-91
2022/10/06 10:33:39;;;;;;;136.82;69.97;;;;;;;18.61;53.80;94654.59;5063309;28;20047;-91
2022/10/06 10:36:05;;;;;;;117.13;68.78;;;;;;;18.61;53.80;94654.59;5080205;28;20040;-91
2022/10/06 10:38:31;;;;;;;118.97;65.88;;;;;;;18.62;53.61;94663.56;5060036;28;20056;-95
2022/10/06 10:41:03;;;;;;;114.45;62.35;;;;;;;18.58;53.31;94668.47;5084823;28;20497;-92
2022/10/06 10:43:40;;;;;;;130.80;60.90;;;;;;;18.59;53.42;94659.81;5070615;28;20036;-93
2022/10/06 10:46:22;;;;;;;123.45;56.55;;;;;;;18.60;53.65;94653.09;5069574;28;20062;-93
2022/10/06 10:49:08;;;;;;;96.45;54.30;;;;;;;18.62;53.41;94658.09;5078203;28;20047;-92
2022/10/06 10:51:39;;;;;;;93.07;49.53;;;;;;;18.61;53.75;94656.59;5079852;28;20036;-92
2022/10/06 10:54:24;;;;;;;86.90;49.45;;;;;;;18.61;53.79;94651.88;5063662;28;20040;-91
2022/10/06 10:56:50;;;;;;;100.47;49.22;;;;;;;18.62;53.72;94661.56;5067847;28;20197;-93
2022/10/06 10:59:24;;;;;;;92.03;50.70;;;;;;;18.67;53.70;94662.84;5059767;28;20040;-95
2022/10/06 11:01:56;;;;;;;95.32;53.17;;;;;;;18.66;53.79;94666.84;5075579;28;20194;-94
2022/10/06 11:04:22;;;;;;;106.22;58.05;;;;;;;18.68;53.40;94662.38;5055010;28;20064;-96
2022/10/06 11:06:51;;;;;;;105.72;58.67;;;;;;;18.67;53.54;94665.59;5077569;28;20044;-94
2022/10/06 11:09:18;;;;;;;101.20;53.97;;;;;;;18.66;53.45;94664.84;5077759;28;20024;-90
2022/10/06 11:11:59;;;;;;;127.60;73.20;;;;;;;18.66;53.72;94656.63;5056245;28;20119;-93
2022/10/06 11:14:40;;;;;;;112.43;66.97;;;;;;;18.67;53.78;94668.34;5063671;28;20028;-93
2022/10/06 11:17:43;;;;;;;131.10;72.75;;;;;;;18.67;53.88;94658.13;5059646;28;20070;-93
2022/10/06 11:20:40;;;;;;;142.98;76.53;;;;;;;18.69;53.68;94668.63;5071973;28;20094;-92
2022/10/06 11:23:36;;;;;;;111.80;66.60;;;;;;;18.66;53.65;94651.16;5093665;28;20044;-92
2022/10/06 11:26:29;;;;;;;112.55;62.13;;;;;;;18.70;53.81;94651.69;5091965;28;20048;-91
2022/10/06 11:28:58;;;;;;;117.90;61.08;;;;;;;18.69;53.83;94652.19;5088666;28;20040;-92
2022/10/06 11:31:45;;;;;;;97.30;58.92;;;;;;;18.67;53.85;94657.38;5070290;28;20752;-92
2022/10/06 11:34:11;;;;;;;103.50;60.78;;;;;;;18.72;53.97;94654.72;5086285;28;20052;-92
2022/10/06 11:37:11;;;;;;;117.72;65.38;;;;;;;18.70;53.76;94650.94;5050810;28;20036;-92
2022/10/06 11:39:57;;;;;;;111.32;63.45;;;;;;;18.69;53.81;94652.94;5073277;28;20040;-90
2022/10/06 11:42:36;;;;;;;111.25;63.58;;;;;;;18.69;54.07;94654.91;5050814;28;20171;-88